Time;durP1;ratioP1;P1;durP2;ratioP2;P2;SDS_P1;SDS_P2;PMS_P1;PMS_P2;Temp;Humidity;BMP_temperature;BMP_pressure;BME280_temperature;BME280_humidity;BME280_pressure;Samples;Min_cycle;Max_cycle;Signal;HPM_P1;HPM_P2
2023/03/05 00:03:24;;;;;;;55.35;33.28;;;;;;;;;;10369949;28;20439;-82
2023/03/05 00:08:26;;;;;;;53.85;32.75;;;;;;;;;;10374789;28;20407;-82
2023/03/05 00:13:28;;;;;;;53.65;33.00;;;;;;;;;;10370243;28;20509;-82
2023/03/05 00:18:31;;;;;;;55.92;32.13;;;;;;;;;;10372471;28;20493;-83
2023/03/05 00:23:33;;;;;;;58.08;33.53;;;;;;;;;;10375953;28;20473;-80
2023/03/05 00:28:35;;;;;;;50.65;30.70;;;;;;;;;;10379190;28;20407;-81
2023/03/05 00:33:38;;;;;;;54.03;32.33;;;;;;;;;;10391733;28;20435;-81
2023/03/05 00:38:40;;;;;;;56.83;32.23;;;;;;;;;;10395111;28;20497;-82
2023/03/05 00:43:42;;;;;;;51.95;31.13;;;;;;;;;;10392257;28;20452;-82
2023/03/05 00:48:45;;;;;;;56.60;32.20;;;;;;;;;;10397118;28;20415;-82
2023/03/05 00:53:47;;;;;;;54.90;31.38;;;;;;;;;;10389336;28;20449;-82
2023/03/05 00:58:49;;;;;;;53.13;32.08;;;;;;;;;;10388189;28;20405;-82
2023/03/05 01:03:55;;;;;;;52.28;30.80;;;;;;;;;;10393755;28;20477;-82
2023/03/05 01:08:58;;;;;;;51.87;30.83;;;;;;;;;;10395975;28;20401;-81
2023/03/05 01:13:59;;;;;;;55.63;31.93;;;;;;;;;;10392007;28;20993;-81
2023/03/05 01:19:03;;;;;;;56.72;33.15;;;;;;;;;;10389147;28;20485;-82
2023/03/05 01:24:06;;;;;;;56.07;33.87;;;;;;;;;;10389309;28;20429;-81
2023/03/05 01:29:07;;;;;;;57.83;34.50;;;;;;;;;;10388002;28;20407;-81
2023/03/05 01:34:10;;;;;;;61.42;34.95;;;;;;;;;;10393638;28;20419;-81
2023/03/05 01:39:12;;;;;;;56.08;34.67;;;;;;;;;;10389104;28;20421;-80
2023/03/05 01:44:26;;;;;;;55.13;32.72;;;;;;;;;;10375266;28;20418;-82
2023/03/05 01:49:31;;;;;;;53.63;31.73;;;;;;;;;;10372923;28;20472;-83
2023/03/05 01:54:36;;;;;;;57.70;32.60;;;;;;;;;;10370229;28;20536;-83
2023/03/05 01:59:40;;;;;;;55.38;33.10;;;;;;;;;;10373004;28;20431;-83
2023/03/05 02:04:46;;;;;;;49.90;31.48;;;;;;;;;;10380273;28;20494;-83
2023/03/05 02:09:48;;;;;;;55.42;32.55;;;;;;;;;;10386830;28;20438;-83
2023/03/05 02:14:57;;;;;;;51.22;32.17;;;;;;;;;;10386303;28;20445;-82
2023/03/05 02:20:08;;;;;;;49.80;31.40;;;;;;;;;;10383624;28;20462;-83
2023/03/05 02:25:16;;;;;;;51.73;31.33;;;;;;;;;;10387846;28;25167;-82
2023/03/05 02:30:18;;;;;;;55.40;31.40;;;;;;;;;;10383793;28;20430;-82
2023/03/05 02:35:21;;;;;;;50.53;30.53;;;;;;;;;;10380154;28;20536;-82
2023/03/05 02:40:24;;;;;;;48.67;30.42;;;;;;;;;;10385257;28;21039;-82
2023/03/05 02:45:26;;;;;;;50.22;31.55;;;;;;;;;;10389595;28;20857;-83
2023/03/05 02:50:29;;;;;;;55.70;31.90;;;;;;;;;;10386927;28;20457;-82
2023/03/05 02:55:32;;;;;;;54.50;31.70;;;;;;;;;;10385063;28;20422;-82
2023/03/05 03:00:33;;;;;;;54.63;31.60;;;;;;;;;;10382245;28;20411;-83
2023/03/05 03:05:35;;;;;;;57.23;32.87;;;;;;;;;;10387200;28;20403;-82
2023/03/05 03:10:38;;;;;;;52.97;31.07;;;;;;;;;;10388684;28;20914;-82
2023/03/05 03:15:40;;;;;;;51.28;30.88;;;;;;;;;;10391836;28;20407;-82
2023/03/05 03:20:42;;;;;;;51.00;30.77;;;;;;;;;;10384078;28;20886;-83
2023/03/05 03:25:45;;;;;;;51.67;30.45;;;;;;;;;;10378316;28;20405;-82
2023/03/05 03:30:47;;;;;;;52.63;30.77;;;;;;;;;;10384304;28;21408;-82
2023/03/05 03:35:49;;;;;;;50.70;30.60;;;;;;;;;;10390206;28;20445;-83
2023/03/05 03:40:52;;;;;;;51.42;30.33;;;;;;;;;;10389619;28;20421;-82
2023/03/05 03:45:54;;;;;;;50.97;29.87;;;;;;;;;;10383991;28;20496;-82
2023/03/05 03:50:56;;;;;;;48.93;29.97;;;;;;;;;;10382055;28;20426;-83
2023/03/05 03:55:59;;;;;;;47.70;28.48;;;;;;;;;;10384653;28;20509;-83
2023/03/05 04:01:01;;;;;;;46.70;28.25;;;;;;;;;;10388277;28;20961;-82
2023/03/05 04:06:04;;;;;;;44.83;27.52;;;;;;;;;;10398366;28;20428;-83
2023/03/05 04:11:07;;;;;;;44.05;26.95;;;;;;;;;;10389683;28;20598;-83
2023/03/05 04:16:09;;;;;;;47.15;27.08;;;;;;;;;;10382211;28;20404;-82
2023/03/05 04:21:11;;;;;;;43.07;26.53;;;;;;;;;;10394388;28;20917;-83
2023/03/05 04:26:14;;;;;;;43.45;25.95;;;;;;;;;;10379040;28;20414;-82
2023/03/05 04:31:16;;;;;;;45.03;25.50;;;;;;;;;;10392884;28;20495;-82
2023/03/05 04:36:17;;;;;;;41.40;24.50;;;;;;;;;;10389405;28;20827;-82
2023/03/05 04:41:21;;;;;;;39.53;23.57;;;;;;;;;;10389953;28;20415;-82
2023/03/05 04:46:22;;;;;;;37.45;23.13;;;;;;;;;;10392922;28;20425;-82
2023/03/05 04:51:25;;;;;;;38.27;23.00;;;;;;;;;;10396049;28;20427;-82
2023/03/05 04:56:28;;;;;;;39.38;22.08;;;;;;;;;;10389918;28;20498;-83
2023/03/05 05:01:31;;;;;;;37.75;21.65;;;;;;;;;;10388978;28;20421;-82
2023/03/05 05:06:33;;;;;;;35.03;20.70;;;;;;;;;;10390970;28;20900;-82
2023/03/05 05:11:36;;;;;;;35.47;20.63;;;;;;;;;;10388006;28;20449;-82
2023/03/05 05:16:38;;;;;;;32.33;20.00;;;;;;;;;;10395852;28;20502;-82
2023/03/05 05:21:40;;;;;;;35.87;20.33;;;;;;;;;;10387632;28;20424;-82
2023/03/05 05:26:43;;;;;;;38.00;20.48;;;;;;;;;;10387089;28;20517;-83
2023/03/05 05:31:45;;;;;;;34.13;20.25;;;;;;;;;;10385942;28;20419;-82
2023/03/05 05:36:47;;;;;;;34.35;20.73;;;;;;;;;;10386999;28;20407;-82
2023/03/05 05:41:52;;;;;;;33.00;20.02;;;;;;;;;;10386768;28;20406;-82
2023/03/05 05:46:54;;;;;;;35.47;19.58;;;;;;;;;;10387108;28;20419;-82
2023/03/05 05:51:56;;;;;;;35.30;19.70;;;;;;;;;;10382361;28;20421;-82
2023/03/05 05:56:59;;;;;;;33.77;19.50;;;;;;;;;;10384309;28;20417;-82
2023/03/05 06:02:01;;;;;;;32.70;19.23;;;;;;;;;;10381201;28;20407;-81
2023/03/05 06:07:04;;;;;;;33.43;20.37;;;;;;;;;;10393391;28;20908;-81
2023/03/05 06:12:08;;;;;;;28.88;18.05;;;;;;;;;;10381943;28;20421;-82
2023/03/05 06:17:10;;;;;;;29.40;17.85;;;;;;;;;;10386824;28;20477;-83
2023/03/05 06:22:12;;;;;;;30.42;18.02;;;;;;;;;;10389327;28;20409;-81
2023/03/05 06:27:15;;;;;;;31.80;18.50;;;;;;;;;;10385816;28;20407;-82
2023/03/05 06:32:17;;;;;;;31.63;18.07;;;;;;;;;;10390045;28;20526;-82
2023/03/05 06:37:19;;;;;;;30.97;18.07;;;;;;;;;;10372542;28;20440;-81
2023/03/05 06:42:23;;;;;;;29.37;16.17;;;;;;;;;;10376895;28;20501;-83
2023/03/05 06:47:26;;;;;;;27.65;15.32;;;;;;;;;;10282311;28;20832;-82
2023/03/05 06:52:28;;;;;;;27.75;15.50;;;;;;;;;;10285666;28;20473;-82
2023/03/05 06:57:30;;;;;;;29.08;16.45;;;;;;;;;;10285001;28;20426;-82
2023/03/05 07:02:33;;;;;;;26.33;16.27;;;;;;;;;;10284346;28;20490;-83
2023/03/05 07:07:35;;;;;;;27.10;15.73;;;;;;;;;;10283843;28;20505;-82
2023/03/05 07:12:37;;;;;;;26.25;15.40;;;;;;;;;;10282063;28;20947;-80
2023/03/05 07:17:40;;;;;;;25.45;14.75;;;;;;;;;;10286868;28;20468;-87
2023/03/05 07:22:42;;;;;;;22.05;14.32;;;;;;;;;;10285620;28;20457;-82
2023/03/05 07:27:44;;;;;;;23.20;14.68;;;;;;;;;;10282965;28;20424;-82
2023/03/05 07:32:47;;;;;;;25.08;14.80;;;;;;;;;;10284580;28;20804;-82
2023/03/05 07:37:49;;;;;;;23.77;14.60;;;;;;;;;;10291455;28;20402;-83
2023/03/05 07:42:51;;;;;;;22.77;14.23;;;;;;;;;;10291800;28;20498;-83
2023/03/05 07:47:54;;;;;;;23.10;13.50;;;;;;;;;;10291520;28;20421;-83
2023/03/05 07:52:56;;;;;;;20.13;13.05;;;;;;;;;;10292746;28;20475;-82
2023/03/05 07:57:58;;;;;;;19.65;12.63;;;;;;;;;;10286063;28;20778;-83
2023/03/05 08:03:01;;;;;;;19.23;12.07;;;;;;;;;;10287898;28;20415;-83
2023/03/05 08:08:03;;;;;;;20.92;12.15;;;;;;;;;;10289030;28;20934;-82
2023/03/05 08:13:05;;;;;;;19.33;11.37;;;;;;;;;;10289543;28;20433;-82
2023/03/05 08:18:09;;;;;;;21.08;10.90;;;;;;;;;;10284029;28;20449;-82
2023/03/05 08:23:11;;;;;;;16.88;10.23;;;;;;;;;;10284357;28;20413;-82
2023/03/05 08:28:12;;;;;;;18.63;10.43;;;;;;;;;;10286291;28;21433;-82
2023/03/05 08:33:17;;;;;;;18.73;10.40;;;;;;;;;;10288568;28;20430;-82
2023/03/05 08:38:19;;;;;;;15.32;9.52;;;;;;;;;;10290548;28;20510;-83
2023/03/05 08:43:20;;;;;;;18.03;10.47;;;;;;;;;;10287603;28;20423;-82
2023/03/05 08:48:24;;;;;;;18.05;10.73;;;;;;;;;;10284968;28;20414;-83
2023/03/05 08:53:26;;;;;;;18.15;9.80;;;;;;;;;;10289386;28;20426;-83
2023/03/05 08:58:28;;;;;;;18.63;10.52;;;;;;;;;;10299185;28;20421;-83
2023/03/05 09:03:31;;;;;;;82.50;37.00;;;;;;;;;;10286721;28;20432;-83
2023/03/05 09:08:34;;;;;;;19.73;12.73;;;;;;;;;;10286664;28;20411;-83
2023/03/05 09:13:36;;;;;;;17.20;10.70;;;;;;;;;;10284110;28;20935;-83
2023/03/05 09:18:39;;;;;;;17.23;10.27;;;;;;;;;;10284871;28;20424;-83
2023/03/05 09:23:42;;;;;;;19.13;10.95;;;;;;;;;;10285053;28;20505;-83
2023/03/05 09:28:44;;;;;;;17.42;9.70;;;;;;;;;;10279307;28;20457;-83
2023/03/05 09:33:47;;;;;;;18.95;10.63;;;;;;;;;;10287889;28;20944;-83
2023/03/05 09:38:49;;;;;;;21.40;11.90;;;;;;;;;;10273188;28;20505;-83
2023/03/05 09:43:58;;;;;;;16.95;9.48;;;;;;;;;;10286345;28;20427;-84
2023/03/05 09:49:11;;;;;;;19.95;11.32;;;;;;;;;;10282876;28;20412;-83
2023/03/05 09:54:18;;;;;;;18.30;11.07;;;;;;;;;;10278536;28;20434;-84
2023/03/05 09:59:29;;;;;;;18.23;10.38;;;;;;;;;;10282692;28;20418;-83
2023/03/05 10:04:44;;;;;;;21.73;11.88;;;;;;;;;;10283671;28;20485;-83
2023/03/05 10:09:51;;;;;;;18.60;12.00;;;;;;;;;;10274705;28;20453;-83
2023/03/05 10:14:53;;;;;;;19.27;11.57;;;;;;;;;;10281332;28;20437;-83
2023/03/05 10:20:14;;;;;;;25.05;13.52;;;;;;;;;;10284772;28;20493;-84
2023/03/05 10:25:23;;;;;;;21.67;13.60;;;;;;;;;;10280855;28;20418;-83
2023/03/05 10:30:39;;;;;;;26.08;14.05;;;;;;;;;;10285441;28;20410;-83
2023/03/05 10:36:03;;;;;;;22.77;13.77;;;;;;;;;;10285448;28;20438;-83
2023/03/05 10:41:16;;;;;;;26.92;14.27;;;;;;;;;;10283205;28;20513;-84
2023/03/05 10:46:21;;;;;;;27.08;15.73;;;;;;;;;;10285497;28;20817;-83
2023/03/05 10:51:34;;;;;;;24.73;14.25;;;;;;;;;;10283941;28;20508;-84
2023/03/05 10:56:35;;;;;;;25.88;13.75;;;;;;;;;;10283120;28;20485;-84
2023/03/05 11:01:37;;;;;;;23.30;14.70;;;;;;;;;;10285760;28;20911;-84
2023/03/05 11:06:44;;;;;;;28.75;15.40;;;;;;;;;;10284871;28;20979;-84
2023/03/05 11:12:03;;;;;;;26.73;15.90;;;;;;;;;;10284925;28;20422;-84
2023/03/05 11:17:27;;;;;;;26.77;15.57;;;;;;;;;;10286353;28;20410;-84
2023/03/05 11:22:34;;;;;;;26.38;15.23;;;;;;;;;;10285329;28;20413;-85
2023/03/05 11:27:39;;;;;;;27.13;15.40;;;;;;;;;;10286946;28;20461;-85
2023/03/05 11:32:41;;;;;;;29.03;15.90;;;;;;;;;;10287262;28;20449;-85
2023/03/05 11:37:46;;;;;;;26.08;15.48;;;;;;;;;;10287695;28;20413;-84
2023/03/05 11:42:55;;;;;;;25.15;15.27;;;;;;;;;;10286255;28;20415;-85
2023/03/05 11:48:02;;;;;;;25.47;15.67;;;;;;;;;;10279426;28;20856;-85
2023/03/05 11:53:11;;;;;;;26.43;14.83;;;;;;;;;;10279742;28;20433;-85
2023/03/05 11:58:26;;;;;;;28.48;14.93;;;;;;;;;;10275654;28;20923;-85
2023/03/05 12:03:32;;;;;;;26.77;15.25;;;;;;;;;;10278660;28;20481;-84
2023/03/05 12:08:38;;;;;;;27.70;16.15;;;;;;;;;;10280075;28;20421;-85
2023/03/05 12:13:43;;;;;;;28.08;15.93;;;;;;;;;;10276525;28;20441;-85
2023/03/05 12:18:54;;;;;;;26.83;16.98;;;;;;;;;;10280618;28;20480;-86
2023/03/05 12:24:00;;;;;;;26.30;15.85;;;;;;;;;;10285741;28;20784;-86
2023/03/05 12:29:02;;;;;;;28.05;16.70;;;;;;;;;;10285211;28;20430;-84
2023/03/05 12:34:45;;;;;;;28.40;16.90;;;;;;;;;;10287226;28;20429;-85
2023/03/05 12:39:59;;;;;;;27.10;16.30;;;;;;;;;;10207549;28;20433;-85
2023/03/05 12:45:25;;;;;;;29.02;16.90;;;;;;;;;;10285520;28;20481;-86
2023/03/05 12:50:47;;;;;;;31.08;17.45;;;;;;;;;;10283022;28;20426;-85
2023/03/05 12:55:59;;;;;;;30.77;17.98;;;;;;;;;;10274999;28;20434;-85
2023/03/05 13:01:07;;;;;;;29.95;18.23;;;;;;;;;;10282772;28;20433;-85
2023/03/05 13:06:24;;;;;;;30.80;18.00;;;;;;;;;;10288607;28;20406;-85
2023/03/05 13:11:29;;;;;;;32.20;18.43;;;;;;;;;;10285399;28;20423;-85
2023/03/05 13:16:37;;;;;;;32.15;18.48;;;;;;;;;;10288161;28;20785;-85
2023/03/05 13:21:39;;;;;;;33.05;19.70;;;;;;;;;;10286765;28;20493;-85
2023/03/05 13:26:42;;;;;;;32.13;19.50;;;;;;;;;;10284376;28;20418;-85
2023/03/05 13:31:47;;;;;;;32.13;19.08;;;;;;;;;;10289654;28;20501;-85
2023/03/05 13:36:56;;;;;;;32.27;19.77;;;;;;;;;;10288776;28;20785;-85
2023/03/05 13:42:02;;;;;;;27.57;18.27;;;;;;;;;;10281392;28;20509;-85
2023/03/05 13:47:12;;;;;;;31.90;19.33;;;;;;;;;;10288297;28;20433;-84
2023/03/05 13:52:25;;;;;;;30.80;19.35;;;;;;;;;;10288766;28;20495;-85
2023/03/05 13:57:41;;;;;;;30.65;19.98;;;;;;;;;;10294287;28;20813;-85
2023/03/05 14:02:43;;;;;;;30.83;19.27;;;;;;;;;;10293552;28;20414;-85
2023/03/05 14:07:48;;;;;;;57.60;36.53;;;;;;;;;;10295068;28;20403;-86
2023/03/05 14:12:51;;;;;;;28.67;19.48;;;;;;;;;;10294031;28;20490;-85
2023/03/05 14:18:08;;;;;;;47.88;31.40;;;;;;;;;;10293591;28;20510;-83
2023/03/05 14:23:33;;;;;;;28.17;18.33;;;;;;;;;;10287120;28;20420;-83
2023/03/05 14:28:37;;;;;;;31.67;19.73;;;;;;;;;;10283584;28;20429;-83
2023/03/05 14:33:39;;;;;;;30.92;19.17;;;;;;;;;;10284616;28;20778;-83
2023/03/05 14:38:44;;;;;;;28.65;18.13;;;;;;;;;;10288378;28;20411;-83
2023/03/05 14:43:47;;;;;;;29.80;18.75;;;;;;;;;;10289144;28;20414;-84
2023/03/05 14:48:49;;;;;;;32.85;20.05;;;;;;;;;;10287752;28;20474;-83
2023/03/05 14:53:51;;;;;;;29.43;18.83;;;;;;;;;;10285220;28;20440;-85
2023/03/05 14:58:56;;;;;;;29.80;17.70;;;;;;;;;;10288383;28;20467;-86
2023/03/05 15:03:59;;;;;;;25.37;15.63;;;;;;;;;;10284359;28;20413;-84
2023/03/05 15:09:03;;;;;;;26.60;16.50;;;;;;;;;;10284002;28;21029;-85
2023/03/05 15:14:07;;;;;;;26.10;16.42;;;;;;;;;;10282955;28;20819;-84
2023/03/05 15:19:11;;;;;;;26.60;16.13;;;;;;;;;;10282619;28;20422;-83
2023/03/05 15:24:14;;;;;;;27.20;16.67;;;;;;;;;;10283376;28;20423;-84
2023/03/05 15:29:17;;;;;;;26.27;16.30;;;;;;;;;;10286585;28;20817;-84
2023/03/05 15:34:19;;;;;;;28.33;17.47;;;;;;;;;;10285135;28;20541;-84
2023/03/05 15:39:23;;;;;;;27.23;18.15;;;;;;;;;;10285428;28;20449;-84
2023/03/05 15:44:26;;;;;;;27.08;17.75;;;;;;;;;;10284053;28;20481;-85
2023/03/05 15:49:28;;;;;;;38.65;23.58;;;;;;;;;;10290250;28;20984;-86
2023/03/05 15:54:30;;;;;;;49.00;31.47;;;;;;;;;;10288470;28;20436;-85
2023/03/05 15:59:33;;;;;;;55.60;33.55;;;;;;;;;;10299119;28;20414;-85
2023/03/05 16:04:35;;;;;;;48.03;31.07;;;;;;;;;;10302192;28;20422;-83
2023/03/05 16:09:39;;;;;;;48.80;30.48;;;;;;;;;;10298897;28;20486;-86
2023/03/05 16:14:42;;;;;;;50.92;31.10;;;;;;;;;;10299437;28;20480;-84
2023/03/05 16:19:48;;;;;;;45.95;30.33;;;;;;;;;;10298191;28;20443;-85
2023/03/05 16:24:50;;;;;;;47.37;30.77;;;;;;;;;;10299092;28;20423;-84
2023/03/05 16:29:53;;;;;;;49.05;31.90;;;;;;;;;;10300775;28;20453;-85
2023/03/05 16:34:55;;;;;;;52.92;32.15;;;;;;;;;;10303202;28;20470;-85
2023/03/05 16:39:59;;;;;;;54.70;34.65;;;;;;;;;;10301922;28;20446;-84
2023/03/05 16:45:02;;;;;;;57.10;36.97;;;;;;;;;;10299145;28;20824;-85
2023/03/05 16:50:04;;;;;;;57.83;35.37;;;;;;;;;;10303188;28;20985;-84
2023/03/05 16:55:06;;;;;;;56.70;35.10;;;;;;;;;;10302276;28;20809;-83
2023/03/05 17:00:11;;;;;;;64.45;36.08;;;;;;;;;;10298591;28;20494;-84
2023/03/05 17:05:13;;;;;;;57.30;35.22;;;;;;;;;;10299533;28;20418;-85
2023/03/05 17:10:17;;;;;;;54.72;34.15;;;;;;;;;;10301630;28;20406;-84
2023/03/05 17:15:20;;;;;;;65.78;41.38;;;;;;;;;;10309149;28;20422;-83
2023/03/05 17:20:22;;;;;;;55.10;34.83;;;;;;;;;;10313972;28;20418;-84
2023/03/05 17:25:24;;;;;;;56.85;34.08;;;;;;;;;;10300716;28;20418;-80
2023/03/05 17:30:30;;;;;;;47.80;30.58;;;;;;;;;;10297293;28;20505;-82
2023/03/05 17:35:32;;;;;;;53.53;30.63;;;;;;;;;;10303334;28;20494;-84
2023/03/05 17:40:35;;;;;;;53.53;30.67;;;;;;;;;;10303465;28;20476;-86
2023/03/05 17:45:38;;;;;;;51.67;30.83;;;;;;;;;;10302797;28;20494;-86
2023/03/05 17:50:41;;;;;;;52.53;31.87;;;;;;;;;;10290000;28;20430;-83
2023/03/05 17:55:43;;;;;;;56.13;32.40;;;;;;;;;;10282347;28;21090;-84
2023/03/05 18:00:46;;;;;;;58.50;34.20;;;;;;;;;;10285471;28;20415;-88
2023/03/05 18:05:48;;;;;;;58.53;34.95;;;;;;;;;;10292356;28;20426;-85
2023/03/05 18:10:50;;;;;;;56.90;35.75;;;;;;;;;;10289113;28;20489;-87
2023/03/05 18:15:54;;;;;;;58.45;35.60;;;;;;;;;;10289894;28;20422;-86
2023/03/05 18:20:56;;;;;;;52.35;33.22;;;;;;;;;;10285287;28;20881;-88
2023/03/05 18:25:58;;;;;;;57.33;33.93;;;;;;;;;;10288041;28;20438;-87
2023/03/05 18:31:01;;;;;;;56.77;34.63;;;;;;;;;;10283184;28;20418;-88
2023/03/05 18:36:03;;;;;;;57.22;34.78;;;;;;;;;;10275623;28;20458;-88
2023/03/05 18:41:06;;;;;;;59.83;36.10;;;;;;;;;;10275416;28;20445;-88
2023/03/05 18:46:10;;;;;;;63.33;35.72;;;;;;;;;;10284696;28;20501;-86
2023/03/05 18:51:15;;;;;;;59.17;34.83;;;;;;;;;;10274698;28;20507;-86
2023/03/05 18:56:17;;;;;;;57.40;33.30;;;;;;;;;;10280151;28;20525;-87
2023/03/05 19:01:20;;;;;;;60.00;36.28;;;;;;;;;;10280067;28;20509;-87
2023/03/05 19:06:22;;;;;;;59.38;35.50;;;;;;;;;;10278014;28;20436;-87
2023/03/05 19:11:24;;;;;;;61.13;35.80;;;;;;;;;;10279141;28;20970;-88
2023/03/05 19:16:35;;;;;;;59.35;35.65;;;;;;;;;;10281076;28;20502;-87
2023/03/05 19:21:37;;;;;;;59.38;35.65;;;;;;;;;;10281805;28;20521;-85
2023/03/05 19:26:39;;;;;;;58.00;34.03;;;;;;;;;;10282766;28;20427;-88
2023/03/05 19:31:42;;;;;;;57.28;33.25;;;;;;;;;;10284784;28;20466;-88
2023/03/05 19:36:44;;;;;;;57.78;34.33;;;;;;;;;;10287888;28;20477;-86
2023/03/05 19:41:46;;;;;;;62.35;36.40;;;;;;;;;;10290438;28;21075;-87
2023/03/05 19:46:49;;;;;;;65.28;36.03;;;;;;;;;;10288037;28;20428;-87
2023/03/05 19:51:52;;;;;;;70.28;37.58;;;;;;;;;;10288861;28;20484;-87
2023/03/05 19:56:54;;;;;;;67.28;36.55;;;;;;;;;;10289570;28;20434;-86
2023/03/05 20:01:58;;;;;;;57.63;32.53;;;;;;;;;;10289885;28;20418;-86
2023/03/05 20:07:00;;;;;;;58.78;34.42;;;;;;;;;;10290614;28;20520;-86
2023/03/05 20:12:04;;;;;;;64.47;36.72;;;;;;;;;;10289116;28;20833;-86
2023/03/05 20:17:07;;;;;;;66.23;36.33;;;;;;;;;;10289960;28;20437;-88
2023/03/05 20:22:10;;;;;;;59.97;35.77;;;;;;;;;;10289656;28;20414;-87
2023/03/05 20:27:11;;;;;;;66.83;39.00;;;;;;;;;;10287031;28;20419;-88
2023/03/05 20:32:15;;;;;;;55.47;34.75;;;;;;;;;;10289632;28;20517;-86
2023/03/05 20:38:21;;;;;;;58.78;33.63;;;;;;;;;;10288230;28;20465;-88
2023/03/05 20:43:23;;;;;;;57.60;33.65;;;;;;;;;;10284446;28;20817;-85
2023/03/05 20:48:28;;;;;;;59.83;33.97;;;;;;;;;;10288559;28;20916;-88
2023/03/05 20:53:30;;;;;;;61.80;35.72;;;;;;;;;;10288271;28;20995;-87
2023/03/05 20:58:32;;;;;;;60.47;35.73;;;;;;;;;;10288115;28;20430;-87
2023/03/05 21:03:37;;;;;;;56.27;34.83;;;;;;;;;;10288087;28;20425;-87
2023/03/05 21:08:39;;;;;;;58.17;33.95;;;;;;;;;;10285899;28;20465;-86
2023/03/05 21:13:43;;;;;;;57.95;34.00;;;;;;;;;;10286670;28;21095;-86
2023/03/05 21:18:46;;;;;;;58.50;33.60;;;;;;;;;;10289528;28;20498;-87
2023/03/05 21:23:48;;;;;;;57.92;34.17;;;;;;;;;;10286877;28;20442;-87
2023/03/05 21:28:50;;;;;;;57.93;32.10;;;;;;;;;;10283250;28;20849;-87
2023/03/05 21:33:54;;;;;;;60.42;33.55;;;;;;;;;;10287500;28;20426;-88
2023/03/05 21:38:57;;;;;;;64.47;36.77;;;;;;;;;;10286142;28;20442;-88
2023/03/05 21:44:02;;;;;;;63.35;36.90;;;;;;;;;;10281997;28;20509;-87
2023/03/05 21:49:06;;;;;;;66.00;36.30;;;;;;;;;;10286689;28;20410;-88
2023/03/05 21:54:08;;;;;;;64.55;37.15;;;;;;;;;;10283253;28;20454;-86
2023/03/05 21:59:10;;;;;;;64.90;37.50;;;;;;;;;;10282335;28;20438;-85
2023/03/05 22:04:13;;;;;;;69.72;36.85;;;;;;;;;;10284496;28;20988;-87
2023/03/05 22:09:15;;;;;;;60.10;34.53;;;;;;;;;;10286230;28;20451;-88
2023/03/05 22:14:17;;;;;;;56.97;34.73;;;;;;;;;;10286857;28;20545;-87
2023/03/05 22:19:21;;;;;;;64.45;36.55;;;;;;;;;;10286550;28;20866;-87
2023/03/05 22:24:24;;;;;;;65.50;37.43;;;;;;;;;;10285986;28;20469;-85
2023/03/05 22:29:26;;;;;;;70.15;38.17;;;;;;;;;;10284165;28;20513;-87
2023/03/05 22:34:29;;;;;;;69.53;38.42;;;;;;;;;;10287389;28;20422;-86
2023/03/05 22:39:31;;;;;;;71.67;38.33;;;;;;;;;;10290159;28;20423;-87
2023/03/05 22:44:33;;;;;;;68.22;37.55;;;;;;;;;;10292445;28;20533;-86
2023/03/05 22:49:36;;;;;;;71.37;37.93;;;;;;;;;;10291015;28;20420;-87
2023/03/05 22:54:38;;;;;;;70.47;38.57;;;;;;;;;;10287061;28;20521;-87
2023/03/05 22:59:39;;;;;;;70.28;37.92;;;;;;;;;;10290975;28;20430;-87
2023/03/05 23:04:49;;;;;;;69.07;39.13;;;;;;;;;;10290132;28;20493;-87
2023/03/05 23:09:52;;;;;;;71.38;39.30;;;;;;;;;;10289876;28;20410;-88
2023/03/05 23:14:54;;;;;;;92.07;46.65;;;;;;;;;;10286582;28;20792;-87
2023/03/05 23:19:57;;;;;;;80.28;43.22;;;;;;;;;;10289804;28;20418;-87
2023/03/05 23:24:59;;;;;;;75.13;40.03;;;;;;;;;;10289101;28;20865;-88
2023/03/05 23:30:18;;;;;;;74.28;39.40;;;;;;;;;;10288346;28;20419;-87
2023/03/05 23:35:23;;;;;;;72.22;39.03;;;;;;;;;;10288992;28;20426;-88
2023/03/05 23:40:27;;;;;;;67.13;37.92;;;;;;;;;;10286334;28;20422;-86
2023/03/05 23:45:30;;;;;;;67.05;36.50;;;;;;;;;;10286335;28;20502;-86
2023/03/05 23:50:35;;;;;;;66.03;37.00;;;;;;;;;;10289251;28;20410;-86
2023/03/05 23:55:41;;;;;;;68.47;37.92;;;;;;;;;;10288904;28;20932;-87
